sensor_id;sensor_type;location;lat;lon;timestamp;temperature;humidity
20231;DHT22;10274;49.022;9.338;2022-12-17T00:00:04;-5.10;1.00
20231;DHT22;10274;49.022;9.338;2022-12-17T00:02:48;-5.10;1.00
20231;DHT22;10274;49.022;9.338;2022-12-17T00:05:32;-5.20;1.00
20231;DHT22;10274;49.022;9.338;2022-12-17T00:08:16;-5.20;1.00
20231;DHT22;10274;49.022;9.338;2022-12-17T00:11:00;-5.20;1.00
20231;DHT22;10274;49.022;9.338;2022-12-17T00:13:46;-5.30;1.00
20231;DHT22;10274;49.022;9.338;2022-12-17T00:16:30;-5.50;1.00
20231;DHT22;10274;49.022;9.338;2022-12-17T00:19:14;-5.60;1.00
20231;DHT22;10274;49.022;9.338;2022-12-17T00:21:58;-5.90;1.00
20231;DHT22;10274;49.022;9.338;2022-12-17T00:24:47;-6.10;1.00
20231;DHT22;10274;49.022;9.338;2022-12-17T00:27:32;-6.30;1.00
20231;DHT22;10274;49.022;9.338;2022-12-17T00:30:17;-6.50;1.00
20231;DHT22;10274;49.022;9.338;2022-12-17T00:33:01;-6.30;3.10
20231;DHT22;10274;49.022;9.338;2022-12-17T00:35:50;-6.00;1.00
20231;DHT22;10274;49.022;9.338;2022-12-17T00:38:33;-5.80;1.00
20231;DHT22;10274;49.022;9.338;2022-12-17T00:41:18;-5.70;1.00
20231;DHT22;10274;49.022;9.338;2022-12-17T00:44:02;-5.90;1.00
20231;DHT22;10274;49.022;9.338;2022-12-17T00:46:48;-5.70;1.00
20231;DHT22;10274;49.022;9.338;2022-12-17T00:49:32;-5.50;1.00
20231;DHT22;10274;49.022;9.338;2022-12-17T00:52:16;-5.50;1.00
20231;DHT22;10274;49.022;9.338;2022-12-17T00:55:00;-5.50;1.00
20231;DHT22;10274;49.022;9.338;2022-12-17T00:57:44;-5.60;1.00
20231;DHT22;10274;49.022;9.338;2022-12-17T01:00:28;-6.20;1.00
20231;DHT22;10274;49.022;9.338;2022-12-17T01:03:14;-6.60;1.00
20231;DHT22;10274;49.022;9.338;2022-12-17T01:06:00;-6.60;1.00
20231;DHT22;10274;49.022;9.338;2022-12-17T01:08:45;-6.50;1.00
20231;DHT22;10274;49.022;9.338;2022-12-17T01:11:29;-6.50;1.00
20231;DHT22;10274;49.022;9.338;2022-12-17T01:14:14;-6.60;1.00
20231;DHT22;10274;49.022;9.338;2022-12-17T01:16:58;-6.40;1.00
20231;DHT22;10274;49.022;9.338;2022-12-17T01:19:44;-6.50;1.00
20231;DHT22;10274;49.022;9.338;2022-12-17T01:22:28;-6.50;1.00
20231;DHT22;10274;49.022;9.338;2022-12-17T01:25:12;-6.20;1.00
20231;DHT22;10274;49.022;9.338;2022-12-17T01:27:56;-6.10;1.00
20231;DHT22;10274;49.022;9.338;2022-12-17T01:30:40;-6.00;1.00
20231;DHT22;10274;49.022;9.338;2022-12-17T01:33:24;-6.30;1.00
20231;DHT22;10274;49.022;9.338;2022-12-17T01:36:10;-6.50;1.00
20231;DHT22;10274;49.022;9.338;2022-12-17T01:38:54;-6.90;1.00
20231;DHT22;10274;49.022;9.338;2022-12-17T01:41:38;-7.10;1.00
20231;DHT22;10274;49.022;9.338;2022-12-17T01:44:46;-7.00;1.00
20231;DHT22;10274;49.022;9.338;2022-12-17T01:47:33;-6.90;1.00
20231;DHT22;10274;49.022;9.338;2022-12-17T01:50:19;-6.80;1.00
20231;DHT22;10274;49.022;9.338;2022-12-17T01:53:07;-6.80;1.00
20231;DHT22;10274;49.022;9.338;2022-12-17T01:55:52;-6.80;1.00
20231;DHT22;10274;49.022;9.338;2022-12-17T01:58:37;-6.90;1.00
20231;DHT22;10274;49.022;9.338;2022-12-17T02:01:22;-6.90;1.00
20231;DHT22;10274;49.022;9.338;2022-12-17T02:04:07;-6.70;1.00
20231;DHT22;10274;49.022;9.338;2022-12-17T02:07:02;-6.60;1.00
20231;DHT22;10274;49.022;9.338;2022-12-17T02:09:57;-6.60;1.00
20231;DHT22;10274;49.022;9.338;2022-12-17T02:12:49;-7.00;1.00
20231;DHT22;10274;49.022;9.338;2022-12-17T02:15:38;-7.00;1.00
20231;DHT22;10274;49.022;9.338;2022-12-17T02:18:26;-6.90;1.00
20231;DHT22;10274;49.022;9.338;2022-12-17T02:21:25;-6.90;1.00
20231;DHT22;10274;49.022;9.338;2022-12-17T02:24:13;-7.10;1.00
20231;DHT22;10274;49.022;9.338;2022-12-17T02:27:03;-7.20;1.00
20231;DHT22;10274;49.022;9.338;2022-12-17T02:29:50;-7.30;1.00
20231;DHT22;10274;49.022;9.338;2022-12-17T02:32:39;-7.10;1.00
20231;DHT22;10274;49.022;9.338;2022-12-17T02:35:26;-7.10;1.00
20231;DHT22;10274;49.022;9.338;2022-12-17T02:38:22;-7.30;1.00
20231;DHT22;10274;49.022;9.338;2022-12-17T02:41:09;-7.60;1.00
20231;DHT22;10274;49.022;9.338;2022-12-17T02:43:56;-7.70;1.00
20231;DHT22;10274;49.022;9.338;2022-12-17T02:46:41;-7.60;1.00
20231;DHT22;10274;49.022;9.338;2022-12-17T02:49:31;-7.50;1.00
20231;DHT22;10274;49.022;9.338;2022-12-17T02:52:17;-7.40;1.00
20231;DHT22;10274;49.022;9.338;2022-12-17T02:55:02;-7.20;1.00
20231;DHT22;10274;49.022;9.338;2022-12-17T02:57:46;-7.20;1.00
20231;DHT22;10274;49.022;9.338;2022-12-17T03:00:31;-7.30;1.00
20231;DHT22;10274;49.022;9.338;2022-12-17T03:03:15;-7.20;1.00
20231;DHT22;10274;49.022;9.338;2022-12-17T03:05:59;-7.20;1.00
20231;DHT22;10274;49.022;9.338;2022-12-17T03:08:43;-7.50;1.00
20231;DHT22;10274;49.022;9.338;2022-12-17T03:11:28;-7.70;1.00
20231;DHT22;10274;49.022;9.338;2022-12-17T03:14:12;-7.60;1.00
20231;DHT22;10274;49.022;9.338;2022-12-17T03:16:57;-7.60;1.00
20231;DHT22;10274;49.022;9.338;2022-12-17T03:19:42;-7.40;1.00
20231;DHT22;10274;49.022;9.338;2022-12-17T03:22:26;-7.30;1.00
20231;DHT22;10274;49.022;9.338;2022-12-17T03:25:10;-7.60;1.00
20231;DHT22;10274;49.022;9.338;2022-12-17T03:28:10;-7.80;1.00
20231;DHT22;10274;49.022;9.338;2022-12-17T03:31:09;-7.90;1.00
20231;DHT22;10274;49.022;9.338;2022-12-17T03:33:55;-7.90;1.00
20231;DHT22;10274;49.022;9.338;2022-12-17T03:36:39;-7.90;1.00
20231;DHT22;10274;49.022;9.338;2022-12-17T03:39:24;-7.90;1.00
20231;DHT22;10274;49.022;9.338;2022-12-17T03:42:08;-7.90;1.00
20231;DHT22;10274;49.022;9.338;2022-12-17T03:44:52;-8.00;1.00
20231;DHT22;10274;49.022;9.338;2022-12-17T03:47:36;-8.00;1.00
20231;DHT22;10274;49.022;9.338;2022-12-17T03:50:22;-7.90;1.00
20231;DHT22;10274;49.022;9.338;2022-12-17T03:53:11;-7.60;1.00
20231;DHT22;10274;49.022;9.338;2022-12-17T03:55:56;-7.50;1.00
20231;DHT22;10274;49.022;9.338;2022-12-17T03:58:40;-7.50;1.00
20231;DHT22;10274;49.022;9.338;2022-12-17T04:01:24;-7.60;1.00
20231;DHT22;10274;49.022;9.338;2022-12-17T04:04:08;-7.60;1.00
20231;DHT22;10274;49.022;9.338;2022-12-17T04:06:54;-7.30;1.00
20231;DHT22;10274;49.022;9.338;2022-12-17T04:09:38;-7.30;1.00
20231;DHT22;10274;49.022;9.338;2022-12-17T04:12:22;-7.10;1.00
20231;DHT22;10274;49.022;9.338;2022-12-17T04:15:07;-7.00;1.00
20231;DHT22;10274;49.022;9.338;2022-12-17T04:17:51;-6.90;1.00
20231;DHT22;10274;49.022;9.338;2022-12-17T04:20:35;-6.80;1.00
20231;DHT22;10274;49.022;9.338;2022-12-17T04:23:21;-6.90;1.00
20231;DHT22;10274;49.022;9.338;2022-12-17T04:26:08;-6.80;1.00
20231;DHT22;10274;49.022;9.338;2022-12-17T04:28:52;-6.70;11.70
20231;DHT22;10274;49.022;9.338;2022-12-17T04:31:36;-6.60;39.20
20231;DHT22;10274;49.022;9.338;2022-12-17T04:34:20;-6.40;64.70
20231;DHT22;10274;49.022;9.338;2022-12-17T04:37:05;-6.30;78.80
20231;DHT22;10274;49.022;9.338;2022-12-17T04:39:50;-6.30;85.40
20231;DHT22;10274;49.022;9.338;2022-12-17T04:42:49;-6.30;86.60
20231;DHT22;10274;49.022;9.338;2022-12-17T04:45:33;-6.40;85.60
20231;DHT22;10274;49.022;9.338;2022-12-17T04:48:17;-6.40;86.40
20231;DHT22;10274;49.022;9.338;2022-12-17T04:51:01;-6.30;91.10
20231;DHT22;10274;49.022;9.338;2022-12-17T04:53:45;-6.30;92.30
20231;DHT22;10274;49.022;9.338;2022-12-17T04:56:31;-6.40;92.30
20231;DHT22;10274;49.022;9.338;2022-12-17T04:59:15;-6.40;90.30
20231;DHT22;10274;49.022;9.338;2022-12-17T05:01:58;-6.50;83.40
20231;DHT22;10274;49.022;9.338;2022-12-17T05:04:42;-6.60;78.10
20231;DHT22;10274;49.022;9.338;2022-12-17T05:07:23;-6.60;80.40
20231;DHT22;10274;49.022;9.338;2022-12-17T05:10:22;-6.70;75.70
20231;DHT22;10274;49.022;9.338;2022-12-17T05:13:09;-6.80;72.90
20231;DHT22;10274;49.022;9.338;2022-12-17T05:15:55;-6.80;69.10
20231;DHT22;10274;49.022;9.338;2022-12-17T05:18:39;-6.90;70.10
20231;DHT22;10274;49.022;9.338;2022-12-17T05:21:24;-6.90;81.60
20231;DHT22;10274;49.022;9.338;2022-12-17T05:24:07;-6.90;87.40
20231;DHT22;10274;49.022;9.338;2022-12-17T05:26:51;-7.00;85.40
20231;DHT22;10274;49.022;9.338;2022-12-17T05:29:37;-6.90;83.20
20231;DHT22;10274;49.022;9.338;2022-12-17T05:32:21;-6.90;77.60
20231;DHT22;10274;49.022;9.338;2022-12-17T05:35:05;-6.80;87.30
20231;DHT22;10274;49.022;9.338;2022-12-17T05:37:50;-6.80;91.10
20231;DHT22;10274;49.022;9.338;2022-12-17T05:40:34;-6.80;92.90
20231;DHT22;10274;49.022;9.338;2022-12-17T05:43:18;-6.70;93.90
20231;DHT22;10274;49.022;9.338;2022-12-17T05:46:04;-6.60;95.20
20231;DHT22;10274;49.022;9.338;2022-12-17T05:48:49;-6.70;92.80
20231;DHT22;10274;49.022;9.338;2022-12-17T05:51:33;-6.70;91.60
20231;DHT22;10274;49.022;9.338;2022-12-17T05:54:17;-6.60;92.00
20231;DHT22;10274;49.022;9.338;2022-12-17T05:57:01;-6.70;91.00
20231;DHT22;10274;49.022;9.338;2022-12-17T05:59:45;-6.60;92.60
20231;DHT22;10274;49.022;9.338;2022-12-17T06:02:30;-6.60;92.00
20231;DHT22;10274;49.022;9.338;2022-12-17T06:05:15;-6.50;92.10
20231;DHT22;10274;49.022;9.338;2022-12-17T06:08:03;-6.50;90.10
20231;DHT22;10274;49.022;9.338;2022-12-17T06:10:47;-6.40;89.50
20231;DHT22;10274;49.022;9.338;2022-12-17T06:13:31;-6.30;91.40
20231;DHT22;10274;49.022;9.338;2022-12-17T06:16:24;-6.30;94.30
20231;DHT22;10274;49.022;9.338;2022-12-17T06:19:10;-6.20;97.30
20231;DHT22;10274;49.022;9.338;2022-12-17T06:21:54;-6.20;97.20
20231;DHT22;10274;49.022;9.338;2022-12-17T06:24:38;-6.10;99.20
20231;DHT22;10274;49.022;9.338;2022-12-17T06:27:22;-6.10;99.90
20231;DHT22;10274;49.022;9.338;2022-12-17T06:30:07;-6.20;99.90
20231;DHT22;10274;49.022;9.338;2022-12-17T06:33:04;-6.10;99.90
20231;DHT22;10274;49.022;9.338;2022-12-17T06:35:51;-6.10;99.90
20231;DHT22;10274;49.022;9.338;2022-12-17T06:38:36;-6.10;99.90
20231;DHT22;10274;49.022;9.338;2022-12-17T06:41:20;-6.20;99.90
20231;DHT22;10274;49.022;9.338;2022-12-17T06:44:04;-6.10;99.90
20231;DHT22;10274;49.022;9.338;2022-12-17T06:46:48;-6.20;99.90
20231;DHT22;10274;49.022;9.338;2022-12-17T06:49:33;-6.20;99.90
20231;DHT22;10274;49.022;9.338;2022-12-17T06:52:18;-6.10;99.90
20231;DHT22;10274;49.022;9.338;2022-12-17T06:55:03;-6.10;99.90
20231;DHT22;10274;49.022;9.338;2022-12-17T06:57:47;-6.10;99.90
20231;DHT22;10274;49.022;9.338;2022-12-17T07:00:33;-6.10;99.90
20231;DHT22;10274;49.022;9.338;2022-12-17T07:03:18;-6.10;99.90
20231;DHT22;10274;49.022;9.338;2022-12-17T07:06:02;-6.10;99.90
20231;DHT22;10274;49.022;9.338;2022-12-17T07:08:47;-6.20;99.90
20231;DHT22;10274;49.022;9.338;2022-12-17T07:11:30;-6.20;99.90
20231;DHT22;10274;49.022;9.338;2022-12-17T07:14:15;-6.20;99.90
20231;DHT22;10274;49.022;9.338;2022-12-17T07:16:59;-6.10;99.90
20231;DHT22;10274;49.022;9.338;2022-12-17T07:19:57;-6.00;99.90
20231;DHT22;10274;49.022;9.338;2022-12-17T07:22:42;-6.10;99.90
20231;DHT22;10274;49.022;9.338;2022-12-17T07:25:28;-6.10;99.90
20231;DHT22;10274;49.022;9.338;2022-12-17T07:28:14;-6.10;99.90
20231;DHT22;10274;49.022;9.338;2022-12-17T07:30:59;-6.00;99.90
20231;DHT22;10274;49.022;9.338;2022-12-17T07:33:43;-6.10;99.90
20231;DHT22;10274;49.022;9.338;2022-12-17T07:36:27;-6.10;99.90
20231;DHT22;10274;49.022;9.338;2022-12-17T07:39:11;-6.10;99.90
20231;DHT22;10274;49.022;9.338;2022-12-17T07:41:57;-6.10;99.90
20231;DHT22;10274;49.022;9.338;2022-12-17T07:44:41;-6.10;99.90
20231;DHT22;10274;49.022;9.338;2022-12-17T07:47:25;-6.10;99.90
20231;DHT22;10274;49.022;9.338;2022-12-17T07:50:09;-6.00;99.90
20231;DHT22;10274;49.022;9.338;2022-12-17T07:53:00;-5.90;99.90
20231;DHT22;10274;49.022;9.338;2022-12-17T07:55:44;-5.80;99.90
20231;DHT22;10274;49.022;9.338;2022-12-17T07:58:30;-5.80;99.90
20231;DHT22;10274;49.022;9.338;2022-12-17T08:01:14;-5.80;99.90
20231;DHT22;10274;49.022;9.338;2022-12-17T08:03:58;-5.80;99.90
20231;DHT22;10274;49.022;9.338;2022-12-17T08:06:43;-5.80;99.90
20231;DHT22;10274;49.022;9.338;2022-12-17T08:09:27;-5.80;99.90
20231;DHT22;10274;49.022;9.338;2022-12-17T08:12:19;-5.80;99.90
20231;DHT22;10274;49.022;9.338;2022-12-17T08:15:06;-5.80;99.90
20231;DHT22;10274;49.022;9.338;2022-12-17T08:17:50;-5.80;99.00
20231;DHT22;10274;49.022;9.338;2022-12-17T08:20:34;-5.80;98.80
20231;DHT22;10274;49.022;9.338;2022-12-17T08:23:18;-5.90;98.00
20231;DHT22;10274;49.022;9.338;2022-12-17T08:26:02;-5.90;99.50
20231;DHT22;10274;49.022;9.338;2022-12-17T08:28:47;-5.80;99.90
20231;DHT22;10274;49.022;9.338;2022-12-17T08:31:32;-5.80;99.60
20231;DHT22;10274;49.022;9.338;2022-12-17T08:34:16;-5.80;99.10
20231;DHT22;10274;49.022;9.338;2022-12-17T08:37:00;-5.80;98.10
20231;DHT22;10274;49.022;9.338;2022-12-17T08:39:44;-5.90;98.80
20231;DHT22;10274;49.022;9.338;2022-12-17T08:42:28;-5.90;98.30
20231;DHT22;10274;49.022;9.338;2022-12-17T08:45:13;-5.90;96.30
20231;DHT22;10274;49.022;9.338;2022-12-17T08:48:07;-5.70;96.60
20231;DHT22;10274;49.022;9.338;2022-12-17T08:50:52;-5.80;92.30
20231;DHT22;10274;49.022;9.338;2022-12-17T08:53:51;-6.00;90.70
20231;DHT22;10274;49.022;9.338;2022-12-17T08:56:35;-5.90;92.60
20231;DHT22;10274;49.022;9.338;2022-12-17T08:59:20;-5.90;89.90
20231;DHT22;10274;49.022;9.338;2022-12-17T09:02:04;-5.90;86.00
20231;DHT22;10274;49.022;9.338;2022-12-17T09:04:50;-6.10;78.00
20231;DHT22;10274;49.022;9.338;2022-12-17T09:07:34;-6.00;80.50
20231;DHT22;10274;49.022;9.338;2022-12-17T09:10:18;-5.90;79.30
20231;DHT22;10274;49.022;9.338;2022-12-17T09:13:02;-6.00;77.60
20231;DHT22;10274;49.022;9.338;2022-12-17T09:15:53;-5.90;84.70
20231;DHT22;10274;49.022;9.338;2022-12-17T09:18:37;-6.00;81.60
20231;DHT22;10274;49.022;9.338;2022-12-17T09:21:22;-5.90;80.70
20231;DHT22;10274;49.022;9.338;2022-12-17T09:24:08;-5.90;83.40
20231;DHT22;10274;49.022;9.338;2022-12-17T09:26:52;-5.90;72.70
20231;DHT22;10274;49.022;9.338;2022-12-17T09:29:36;-5.90;71.80
20231;DHT22;10274;49.022;9.338;2022-12-17T09:32:20;-5.80;73.90
20231;DHT22;10274;49.022;9.338;2022-12-17T09:35:05;-5.70;69.70
20231;DHT22;10274;49.022;9.338;2022-12-17T09:37:52;-5.60;54.50
20231;DHT22;10274;49.022;9.338;2022-12-17T09:40:36;-5.60;42.30
20231;DHT22;10274;49.022;9.338;2022-12-17T09:43:29;-5.50;50.30
20231;DHT22;10274;49.022;9.338;2022-12-17T09:46:21;-5.70;47.50
20231;DHT22;10274;49.022;9.338;2022-12-17T09:49:13;-5.30;49.70
20231;DHT22;10274;49.022;9.338;2022-12-17T09:51:58;-5.30;29.20
20231;DHT22;10274;49.022;9.338;2022-12-17T09:54:47;-5.10;23.00
20231;DHT22;10274;49.022;9.338;2022-12-17T09:57:35;-4.40;1.00
20231;DHT22;10274;49.022;9.338;2022-12-17T10:00:21;-2.30;99.90
20231;DHT22;10274;49.022;9.338;2022-12-17T10:03:10;-3.70;99.90
20231;DHT22;10274;49.022;9.338;2022-12-17T10:05:56;-4.80;1.00
20231;DHT22;10274;49.022;9.338;2022-12-17T10:08:40;-4.60;1.00
20231;DHT22;10274;49.022;9.338;2022-12-17T10:11:28;-4.50;1.00
20231;DHT22;10274;49.022;9.338;2022-12-17T10:14:16;-3.70;1.00
20231;DHT22;10274;49.022;9.338;2022-12-17T10:17:00;-3.70;1.00
20231;DHT22;10274;49.022;9.338;2022-12-17T10:19:49;-3.00;99.90
20231;DHT22;10274;49.022;9.338;2022-12-17T10:22:41;-2.80;99.90
20231;DHT22;10274;49.022;9.338;2022-12-17T10:25:26;-4.10;99.90
20231;DHT22;10274;49.022;9.338;2022-12-17T10:28:13;-3.00;1.00
20231;DHT22;10274;49.022;9.338;2022-12-17T10:30:58;-1.80;1.00
20231;DHT22;10274;49.022;9.338;2022-12-17T10:33:44;-3.10;1.00
20231;DHT22;10274;49.022;9.338;2022-12-17T10:36:29;-4.00;99.90
20231;DHT22;10274;49.022;9.338;2022-12-17T10:39:16;-3.90;1.00
20231;DHT22;10274;49.022;9.338;2022-12-17T10:42:01;-4.30;1.00
20231;DHT22;10274;49.022;9.338;2022-12-17T10:44:46;-4.40;1.00
20231;DHT22;10274;49.022;9.338;2022-12-17T10:47:32;-3.10;1.00
20231;DHT22;10274;49.022;9.338;2022-12-17T10:50:18;-1.30;1.00
20231;DHT22;10274;49.022;9.338;2022-12-17T10:53:05;0.00;1.00
20231;DHT22;10274;49.022;9.338;2022-12-17T10:55:59;-0.90;99.90
20231;DHT22;10274;49.022;9.338;2022-12-17T10:58:45;-3.50;1.00
20231;DHT22;10274;49.022;9.338;2022-12-17T11:01:31;-3.50;99.90
20231;DHT22;10274;49.022;9.338;2022-12-17T11:04:24;-3.40;99.90
20231;DHT22;10274;49.022;9.338;2022-12-17T11:07:09;-4.10;1.00
20231;DHT22;10274;49.022;9.338;2022-12-17T11:09:57;-4.00;1.00
20231;DHT22;10274;49.022;9.338;2022-12-17T11:12:46;-4.30;1.00
20231;DHT22;10274;49.022;9.338;2022-12-17T11:15:36;-4.50;1.00
20231;DHT22;10274;49.022;9.338;2022-12-17T11:18:26;-4.20;1.00
20231;DHT22;10274;49.022;9.338;2022-12-17T11:21:19;-4.30;1.00
20231;DHT22;10274;49.022;9.338;2022-12-17T11:24:18;-4.30;1.00
20231;DHT22;10274;49.022;9.338;2022-12-17T11:27:06;-4.20;1.00
20231;DHT22;10274;49.022;9.338;2022-12-17T11:29:52;-3.90;1.00
20231;DHT22;10274;49.022;9.338;2022-12-17T11:33:01;-4.00;1.00
20231;DHT22;10274;49.022;9.338;2022-12-17T11:35:57;-3.80;1.00
20231;DHT22;10274;49.022;9.338;2022-12-17T11:38:48;-3.80;1.00
20231;DHT22;10274;49.022;9.338;2022-12-17T11:41:45;-3.50;1.00
20231;DHT22;10274;49.022;9.338;2022-12-17T11:44:42;-3.10;1.00
20231;DHT22;10274;49.022;9.338;2022-12-17T11:47:33;-2.10;1.00
20231;DHT22;10274;49.022;9.338;2022-12-17T11:50:26;-1.00;1.00
20231;DHT22;10274;49.022;9.338;2022-12-17T11:53:35;-1.40;99.90
20231;DHT22;10274;49.022;9.338;2022-12-17T11:56:24;-1.10;1.00
20231;DHT22;10274;49.022;9.338;2022-12-17T11:59:17;-1.90;99.90
20231;DHT22;10274;49.022;9.338;2022-12-17T12:02:13;-1.40;99.90
20231;DHT22;10274;49.022;9.338;2022-12-17T12:05:13;-2.20;1.00
20231;DHT22;10274;49.022;9.338;2022-12-17T12:08:06;-2.50;99.90
20231;DHT22;10274;49.022;9.338;2022-12-17T12:11:01;-2.50;1.00
20231;DHT22;10274;49.022;9.338;2022-12-17T12:13:54;-2.00;1.00
20231;DHT22;10274;49.022;9.338;2022-12-17T12:16:47;-1.40;1.00
20231;DHT22;10274;49.022;9.338;2022-12-17T12:19:37;-0.80;99.90
20231;DHT22;10274;49.022;9.338;2022-12-17T12:22:31;-0.40;1.00
20231;DHT22;10274;49.022;9.338;2022-12-17T12:25:32;-0.60;1.00
20231;DHT22;10274;49.022;9.338;2022-12-17T12:28:23;-1.30;1.00
20231;DHT22;10274;49.022;9.338;2022-12-17T12:31:19;-1.00;99.90
20231;DHT22;10274;49.022;9.338;2022-12-17T12:34:07;-1.90;99.90
20231;DHT22;10274;49.022;9.338;2022-12-17T12:36:55;-2.70;1.00
20231;DHT22;10274;49.022;9.338;2022-12-17T12:39:48;-2.60;32.30
20231;DHT22;10274;49.022;9.338;2022-12-17T12:42:38;-2.30;1.00
20231;DHT22;10274;49.022;9.338;2022-12-17T12:45:37;-2.00;99.90
20231;DHT22;10274;49.022;9.338;2022-12-17T12:48:31;-1.60;1.00
20231;DHT22;10274;49.022;9.338;2022-12-17T12:51:21;-1.40;99.90
20231;DHT22;10274;49.022;9.338;2022-12-17T12:54:25;-1.40;99.90
20231;DHT22;10274;49.022;9.338;2022-12-17T12:57:28;-1.60;99.90
20231;DHT22;10274;49.022;9.338;2022-12-17T13:00:25;-1.10;1.00
20231;DHT22;10274;49.022;9.338;2022-12-17T13:03:22;-0.90;1.00
20231;DHT22;10274;49.022;9.338;2022-12-17T13:06:07;-1.30;99.90
20231;DHT22;10274;49.022;9.338;2022-12-17T13:08:34;-0.30;99.90
20231;DHT22;10274;49.022;9.338;2022-12-17T13:11:10;0.00;1.00
20231;DHT22;10274;49.022;9.338;2022-12-17T13:13:40;-0.30;99.90
20231;DHT22;10274;49.022;9.338;2022-12-17T13:16:29;-0.10;99.90
20231;DHT22;10274;49.022;9.338;2022-12-17T13:19:04;-0.30;99.90
20231;DHT22;10274;49.022;9.338;2022-12-17T13:21:42;-0.60;99.90
20231;DHT22;10274;49.022;9.338;2022-12-17T13:24:10;-0.20;99.90
20231;DHT22;10274;49.022;9.338;2022-12-17T13:26:43;-0.70;99.90
20231;DHT22;10274;49.022;9.338;2022-12-17T13:29:20;-1.00;1.00
20231;DHT22;10274;49.022;9.338;2022-12-17T13:32:06;-0.80;1.00
20231;DHT22;10274;49.022;9.338;2022-12-17T13:34:47;-1.70;1.00
20231;DHT22;10274;49.022;9.338;2022-12-17T13:37:22;-1.50;1.00
20231;DHT22;10274;49.022;9.338;2022-12-17T13:39:55;-1.90;1.00
20231;DHT22;10274;49.022;9.338;2022-12-17T13:42:28;-2.10;1.00
20231;DHT22;10274;49.022;9.338;2022-12-17T13:44:56;-2.10;99.90
20231;DHT22;10274;49.022;9.338;2022-12-17T13:47:25;-1.30;1.00
20231;DHT22;10274;49.022;9.338;2022-12-17T13:49:56;-0.90;1.00
20231;DHT22;10274;49.022;9.338;2022-12-17T13:52:24;-0.40;1.00
20231;DHT22;10274;49.022;9.338;2022-12-17T13:54:51;-0.90;99.90
20231;DHT22;10274;49.022;9.338;2022-12-17T13:57:20;-0.60;1.00
20231;DHT22;10274;49.022;9.338;2022-12-17T13:59:52;-0.70;99.90
20231;DHT22;10274;49.022;9.338;2022-12-17T14:02:25;-0.70;99.90
20231;DHT22;10274;49.022;9.338;2022-12-17T14:04:53;-0.20;69.70
20231;DHT22;10274;49.022;9.338;2022-12-17T14:07:21;-0.60;1.00
20231;DHT22;10274;49.022;9.338;2022-12-17T14:09:49;-1.30;99.90
20231;DHT22;10274;49.022;9.338;2022-12-17T14:12:18;-1.40;1.00
20231;DHT22;10274;49.022;9.338;2022-12-17T14:14:50;-1.50;1.00
20231;DHT22;10274;49.022;9.338;2022-12-17T14:17:20;-1.60;37.70
20231;DHT22;10274;49.022;9.338;2022-12-17T14:19:51;-1.30;99.90
20231;DHT22;10274;49.022;9.338;2022-12-17T14:22:30;-0.90;1.00
20231;DHT22;10274;49.022;9.338;2022-12-17T14:24:57;-1.10;99.90
20231;DHT22;10274;49.022;9.338;2022-12-17T14:27:30;-1.70;99.90
20231;DHT22;10274;49.022;9.338;2022-12-17T14:29:57;-1.90;1.00
20231;DHT22;10274;49.022;9.338;2022-12-17T14:32:25;-1.60;1.00
20231;DHT22;10274;49.022;9.338;2022-12-17T14:34:56;-2.00;1.00
20231;DHT22;10274;49.022;9.338;2022-12-17T14:37:25;-2.70;99.90
20231;DHT22;10274;49.022;9.338;2022-12-17T14:39:54;-2.50;1.00
20231;DHT22;10274;49.022;9.338;2022-12-17T14:42:24;-3.00;99.90
20231;DHT22;10274;49.022;9.338;2022-12-17T14:44:52;-3.30;1.00
20231;DHT22;10274;49.022;9.338;2022-12-17T14:47:21;-3.50;1.00
20231;DHT22;10274;49.022;9.338;2022-12-17T14:49:55;-3.70;1.00
20231;DHT22;10274;49.022;9.338;2022-12-17T14:55:32;-4.30;1.00
20231;DHT22;10274;49.022;9.338;2022-12-17T14:58:15;-4.20;1.00
20231;DHT22;10274;49.022;9.338;2022-12-17T15:00:45;-4.30;1.00
20231;DHT22;10274;49.022;9.338;2022-12-17T15:03:18;-4.20;1.00
20231;DHT22;10274;49.022;9.338;2022-12-17T15:05:47;-4.10;1.00
20231;DHT22;10274;49.022;9.338;2022-12-17T15:08:17;-4.10;1.00
20231;DHT22;10274;49.022;9.338;2022-12-17T15:10:44;-4.30;1.00
20231;DHT22;10274;49.022;9.338;2022-12-17T15:13:11;-4.70;1.00
20231;DHT22;10274;49.022;9.338;2022-12-17T15:15:37;-4.60;1.00
20231;DHT22;10274;49.022;9.338;2022-12-17T15:18:04;-4.50;1.00
20231;DHT22;10274;49.022;9.338;2022-12-17T15:20:31;-4.50;1.00
20231;DHT22;10274;49.022;9.338;2022-12-17T15:22:58;-4.80;1.00
20231;DHT22;10274;49.022;9.338;2022-12-17T15:25:27;-5.00;1.00
20231;DHT22;10274;49.022;9.338;2022-12-17T15:27:54;-5.10;1.00
20231;DHT22;10274;49.022;9.338;2022-12-17T15:30:21;-4.90;1.00
20231;DHT22;10274;49.022;9.338;2022-12-17T15:32:47;-4.80;1.00
20231;DHT22;10274;49.022;9.338;2022-12-17T15:35:14;-4.80;1.00
20231;DHT22;10274;49.022;9.338;2022-12-17T15:37:41;-5.20;1.00
20231;DHT22;10274;49.022;9.338;2022-12-17T15:40:08;-5.50;1.00
20231;DHT22;10274;49.022;9.338;2022-12-17T15:42:38;-5.20;1.00
20231;DHT22;10274;49.022;9.338;2022-12-17T15:45:22;-5.30;1.00
20231;DHT22;10274;49.022;9.338;2022-12-17T15:47:49;-5.20;1.00
20231;DHT22;10274;49.022;9.338;2022-12-17T15:50:15;-5.10;1.00
20231;DHT22;10274;49.022;9.338;2022-12-17T15:52:42;-5.00;1.00
20231;DHT22;10274;49.022;9.338;2022-12-17T15:55:10;-5.00;1.00
20231;DHT22;10274;49.022;9.338;2022-12-17T15:57:39;-5.10;1.00
20231;DHT22;10274;49.022;9.338;2022-12-17T16:00:06;-5.10;1.00
20231;DHT22;10274;49.022;9.338;2022-12-17T16:02:34;-5.20;1.00
20231;DHT22;10274;49.022;9.338;2022-12-17T16:05:01;-5.50;1.00
20231;DHT22;10274;49.022;9.338;2022-12-17T16:07:28;-5.80;1.00
20231;DHT22;10274;49.022;9.338;2022-12-17T16:09:54;-5.60;1.00
20231;DHT22;10274;49.022;9.338;2022-12-17T16:12:21;-5.50;1.00
20231;DHT22;10274;49.022;9.338;2022-12-17T16:14:49;-5.50;1.00
20231;DHT22;10274;49.022;9.338;2022-12-17T16:17:16;-5.80;1.00
20231;DHT22;10274;49.022;9.338;2022-12-17T16:19:42;-6.00;1.00
20231;DHT22;10274;49.022;9.338;2022-12-17T16:22:09;-5.90;1.00
20231;DHT22;10274;49.022;9.338;2022-12-17T16:24:36;-6.00;1.00
20231;DHT22;10274;49.022;9.338;2022-12-17T16:27:03;-6.00;1.00
20231;DHT22;10274;49.022;9.338;2022-12-17T16:29:29;-5.80;1.00
20231;DHT22;10274;49.022;9.338;2022-12-17T16:31:58;-5.90;1.00
20231;DHT22;10274;49.022;9.338;2022-12-17T16:34:25;-6.10;1.00
20231;DHT22;10274;49.022;9.338;2022-12-17T16:36:51;-6.40;1.00
20231;DHT22;10274;49.022;9.338;2022-12-17T16:39:19;-6.20;1.00
20231;DHT22;10274;49.022;9.338;2022-12-17T16:41:46;-6.00;1.00
20231;DHT22;10274;49.022;9.338;2022-12-17T16:44:13;-5.90;1.00
20231;DHT22;10274;49.022;9.338;2022-12-17T16:46:41;-6.00;1.00
20231;DHT22;10274;49.022;9.338;2022-12-17T16:49:11;-6.10;1.00
20231;DHT22;10274;49.022;9.338;2022-12-17T16:51:39;-5.90;1.00
20231;DHT22;10274;49.022;9.338;2022-12-17T16:54:11;-5.80;1.00
20231;DHT22;10274;49.022;9.338;2022-12-17T16:56:39;-5.90;1.00
20231;DHT22;10274;49.022;9.338;2022-12-17T16:59:07;-6.00;1.00
20231;DHT22;10274;49.022;9.338;2022-12-17T17:01:37;-6.20;1.00
20231;DHT22;10274;49.022;9.338;2022-12-17T17:04:05;-6.40;1.00
20231;DHT22;10274;49.022;9.338;2022-12-17T17:06:37;-6.50;1.00
20231;DHT22;10274;49.022;9.338;2022-12-17T17:09:04;-6.60;1.00
20231;DHT22;10274;49.022;9.338;2022-12-17T17:11:30;-6.70;1.00
20231;DHT22;10274;49.022;9.338;2022-12-17T17:13:57;-6.80;1.00
20231;DHT22;10274;49.022;9.338;2022-12-17T17:16:25;-6.80;1.00
20231;DHT22;10274;49.022;9.338;2022-12-17T17:18:53;-6.60;1.00